sensor_id;sensor_type;location;lat;lon;timestamp;pressure;altitude;pressure_sealevel;temperature;humidity
57024;BME280;42916;54.346;18.562;2023-04-01T00:01:27;98603.97;;;3.84;100.00
57024;BME280;42916;54.346;18.562;2023-04-01T00:03:53;98598.97;;;3.79;100.00
57024;BME280;42916;54.346;18.562;2023-04-01T00:06:21;98599.50;;;3.72;100.00
57024;BME280;42916;54.346;18.562;2023-04-01T00:08:47;98595.73;;;3.67;100.00
57024;BME280;42916;54.346;18.562;2023-04-01T00:11:15;98594.09;;;3.63;100.00
57024;BME280;42916;54.346;18.562;2023-04-01T00:13:43;98596.52;;;3.58;100.00
57024;BME280;42916;54.346;18.562;2023-04-01T00:16:09;98593.71;;;3.51;100.00
57024;BME280;42916;54.346;18.562;2023-04-01T00:18:36;98598.17;;;3.47;100.00
57024;BME280;42916;54.346;18.562;2023-04-01T00:21:03;98599.94;;;3.45;100.00
57024;BME280;42916;54.346;18.562;2023-04-01T00:23:30;98603.02;;;3.43;100.00
57024;BME280;42916;54.346;18.562;2023-04-01T00:25:59;98601.36;;;3.39;100.00
57024;BME280;42916;54.346;18.562;2023-04-01T00:28:27;98603.56;;;3.37;100.00
57024;BME280;42916;54.346;18.562;2023-04-01T00:30:54;98604.99;;;3.35;100.00
57024;BME280;42916;54.346;18.562;2023-04-01T00:33:21;98603.25;;;3.33;100.00
57024;BME280;42916;54.346;18.562;2023-04-01T00:35:47;98605.91;;;3.30;100.00
57024;BME280;42916;54.346;18.562;2023-04-01T00:38:15;98608.95;;;3.28;100.00
57024;BME280;42916;54.346;18.562;2023-04-01T00:40:46;98610.79;;;3.26;100.00
57024;BME280;42916;54.346;18.562;2023-04-01T00:43:18;98612.43;;;3.24;100.00
57024;BME280;42916;54.346;18.562;2023-04-01T00:45:49;98612.09;;;3.21;100.00
57024;BME280;42916;54.346;18.562;2023-04-01T00:48:19;98613.14;;;3.20;100.00
57024;BME280;42916;54.346;18.562;2023-04-01T00:50:53;98612.89;;;3.19;100.00
57024;BME280;42916;54.346;18.562;2023-04-01T00:53:22;98610.03;;;3.19;100.00
57024;BME280;42916;54.346;18.562;2023-04-01T00:55:57;98610.61;;;3.19;100.00
57024;BME280;42916;54.346;18.562;2023-04-01T00:58:27;98605.68;;;3.20;100.00
57024;BME280;42916;54.346;18.562;2023-04-01T01:00:58;98602.67;;;3.19;100.00
57024;BME280;42916;54.346;18.562;2023-04-01T01:03:27;98601.76;;;3.20;100.00
57024;BME280;42916;54.346;18.562;2023-04-01T01:11:32;98600.17;;;3.23;100.00
57024;BME280;42916;54.346;18.562;2023-04-01T01:14:20;98599.44;;;3.24;100.00
57024;BME280;42916;54.346;18.562;2023-04-01T01:16:54;98603.84;;;3.28;100.00
57024;BME280;42916;54.346;18.562;2023-04-01T01:25:44;98605.75;;;3.36;100.00
57024;BME280;42916;54.346;18.562;2023-04-01T01:31:07;98610.14;;;3.41;100.00
57024;BME280;42916;54.346;18.562;2023-04-01T01:33:54;98612.05;;;3.44;100.00
57024;BME280;42916;54.346;18.562;2023-04-01T01:36:30;98615.89;;;3.44;100.00
57024;BME280;42916;54.346;18.562;2023-04-01T01:38:58;98613.10;;;3.46;100.00
57024;BME280;42916;54.346;18.562;2023-04-01T01:41:27;98613.41;;;3.49;100.00
57024;BME280;42916;54.346;18.562;2023-04-01T01:43:56;98615.85;;;3.51;100.00
57024;BME280;42916;54.346;18.562;2023-04-01T01:46:27;98615.27;;;3.52;100.00
57024;BME280;42916;54.346;18.562;2023-04-01T01:48:55;98618.47;;;3.54;100.00
57024;BME280;42916;54.346;18.562;2023-04-01T01:51:24;98618.06;;;3.56;100.00
57024;BME280;42916;54.346;18.562;2023-04-01T01:53:53;98614.95;;;3.56;100.00
57024;BME280;42916;54.346;18.562;2023-04-01T01:56:23;98620.63;;;3.59;100.00
57024;BME280;42916;54.346;18.562;2023-04-01T01:58:59;98616.06;;;3.61;100.00
57024;BME280;42916;54.346;18.562;2023-04-01T02:01:30;98615.27;;;3.61;100.00
57024;BME280;42916;54.346;18.562;2023-04-01T02:04:03;98615.08;;;3.59;100.00
57024;BME280;42916;54.346;18.562;2023-04-01T02:06:34;98618.60;;;3.56;100.00
57024;BME280;42916;54.346;18.562;2023-04-01T02:09:05;98617.00;;;3.52;100.00
57024;BME280;42916;54.346;18.562;2023-04-01T02:11:59;98622.86;;;3.52;100.00
57024;BME280;42916;54.346;18.562;2023-04-01T02:14:39;98618.91;;;3.51;100.00
57024;BME280;42916;54.346;18.562;2023-04-01T02:17:15;98624.67;;;3.46;100.00
57024;BME280;42916;54.346;18.562;2023-04-01T02:19:50;98618.86;;;3.41;100.00
57024;BME280;42916;54.346;18.562;2023-04-01T02:22:24;98620.77;;;3.38;100.00
57024;BME280;42916;54.346;18.562;2023-04-01T02:24:57;98622.85;;;3.36;100.00
57024;BME280;42916;54.346;18.562;2023-04-01T02:27:25;98628.00;;;3.31;100.00
57024;BME280;42916;54.346;18.562;2023-04-01T02:29:52;98622.80;;;3.27;100.00
57024;BME280;42916;54.346;18.562;2023-04-01T02:32:20;98627.94;;;3.25;100.00
57024;BME280;42916;54.346;18.562;2023-04-01T02:34:47;98630.20;;;3.26;100.00
57024;BME280;42916;54.346;18.562;2023-04-01T02:37:15;98631.38;;;3.26;100.00
57024;BME280;42916;54.346;18.562;2023-04-01T02:39:41;98632.44;;;3.24;100.00
57024;BME280;42916;54.346;18.562;2023-04-01T02:42:09;98629.86;;;3.20;100.00
57024;BME280;42916;54.346;18.562;2023-04-01T02:44:36;98628.94;;;3.15;100.00
57024;BME280;42916;54.346;18.562;2023-04-01T02:47:03;98629.80;;;3.10;100.00
57024;BME280;42916;54.346;18.562;2023-04-01T02:49:30;98634.09;;;3.06;100.00
57024;BME280;42916;54.346;18.562;2023-04-01T02:51:57;98635.70;;;3.01;100.00
57024;BME280;42916;54.346;18.562;2023-04-01T02:54:24;98637.26;;;3.02;100.00
57024;BME280;42916;54.346;18.562;2023-04-01T02:56:50;98639.02;;;3.01;100.00
57024;BME280;42916;54.346;18.562;2023-04-01T02:59:17;98645.77;;;2.99;100.00
57024;BME280;42916;54.346;18.562;2023-04-01T03:01:44;98646.35;;;2.98;100.00
57024;BME280;42916;54.346;18.562;2023-04-01T03:04:11;98648.77;;;2.97;100.00
57024;BME280;42916;54.346;18.562;2023-04-01T03:06:38;98649.36;;;2.98;100.00
57024;BME280;42916;54.346;18.562;2023-04-01T03:09:05;98653.45;;;2.99;100.00
57024;BME280;42916;54.346;18.562;2023-04-01T03:11:32;98656.48;;;3.01;100.00
57024;BME280;42916;54.346;18.562;2023-04-01T03:13:58;98656.25;;;3.03;100.00
57024;BME280;42916;54.346;18.562;2023-04-01T03:16:25;98655.94;;;3.04;100.00
57024;BME280;42916;54.346;18.562;2023-04-01T03:18:52;98656.61;;;3.06;100.00
57024;BME280;42916;54.346;18.562;2023-04-01T03:21:24;98662.66;;;3.09;100.00
57024;BME280;42916;54.346;18.562;2023-04-01T03:23:51;98665.52;;;3.10;100.00
57024;BME280;42916;54.346;18.562;2023-04-01T03:26:19;98663.35;;;3.09;100.00
57024;BME280;42916;54.346;18.562;2023-04-01T03:28:46;98662.85;;;3.07;100.00
57024;BME280;42916;54.346;18.562;2023-04-01T03:31:13;98665.08;;;3.05;100.00
57024;BME280;42916;54.346;18.562;2023-04-01T03:33:45;98665.45;;;3.04;100.00
57024;BME280;42916;54.346;18.562;2023-04-01T03:36:12;98663.41;;;3.04;100.00
57024;BME280;42916;54.346;18.562;2023-04-01T03:38:40;98666.10;;;3.04;100.00
57024;BME280;42916;54.346;18.562;2023-04-01T03:41:14;98663.38;;;3.06;100.00
57024;BME280;42916;54.346;18.562;2023-04-01T03:43:42;98663.73;;;3.09;100.00
57024;BME280;42916;54.346;18.562;2023-04-01T03:46:09;98663.37;;;3.09;100.00
57024;BME280;42916;54.346;18.562;2023-04-01T03:48:36;98668.19;;;3.08;100.00
57024;BME280;42916;54.346;18.562;2023-04-01T03:51:08;98670.55;;;3.08;100.00
57024;BME280;42916;54.346;18.562;2023-04-01T03:53:35;98672.64;;;3.08;100.00
57024;BME280;42916;54.346;18.562;2023-04-01T03:56:07;98678.95;;;3.10;100.00
57024;BME280;42916;54.346;18.562;2023-04-01T03:58:35;98672.90;;;3.12;100.00
57024;BME280;42916;54.346;18.562;2023-04-01T04:01:03;98680.92;;;3.12;100.00
57024;BME280;42916;54.346;18.562;2023-04-01T04:03:31;98682.29;;;3.14;100.00
57024;BME280;42916;54.346;18.562;2023-04-01T04:05:58;98678.27;;;3.14;100.00
57024;BME280;42916;54.346;18.562;2023-04-01T04:08:25;98681.58;;;3.14;100.00
57024;BME280;42916;54.346;18.562;2023-04-01T04:10:56;98685.73;;;3.13;100.00
57024;BME280;42916;54.346;18.562;2023-04-01T04:13:22;98685.86;;;3.16;100.00
57024;BME280;42916;54.346;18.562;2023-04-01T04:15:55;98692.85;;;3.17;100.00
57024;BME280;42916;54.346;18.562;2023-04-01T04:18:22;98693.05;;;3.19;100.00
57024;BME280;42916;54.346;18.562;2023-04-01T04:20:49;98693.91;;;3.20;100.00
57024;BME280;42916;54.346;18.562;2023-04-01T04:23:18;98686.93;;;3.19;100.00
57024;BME280;42916;54.346;18.562;2023-04-01T04:25:58;98691.75;;;3.19;100.00
57024;BME280;42916;54.346;18.562;2023-04-01T04:28:27;98690.73;;;3.19;100.00
57024;BME280;42916;54.346;18.562;2023-04-01T04:30:54;98691.64;;;3.19;100.00
57024;BME280;42916;54.346;18.562;2023-04-01T04:33:22;98685.32;;;3.19;100.00
57024;BME280;42916;54.346;18.562;2023-04-01T04:35:51;98687.86;;;3.21;100.00
57024;BME280;42916;54.346;18.562;2023-04-01T04:38:18;98687.08;;;3.23;100.00
57024;BME280;42916;54.346;18.562;2023-04-01T04:40:45;98687.76;;;3.25;100.00
57024;BME280;42916;54.346;18.562;2023-04-01T04:43:14;98694.70;;;3.27;100.00
57024;BME280;42916;54.346;18.562;2023-04-01T04:45:42;98696.20;;;3.27;100.00
57024;BME280;42916;54.346;18.562;2023-04-01T04:48:11;98693.00;;;3.28;100.00
57024;BME280;42916;54.346;18.562;2023-04-01T04:50:42;98694.44;;;3.31;100.00
57024;BME280;42916;54.346;18.562;2023-04-01T04:53:10;98693.74;;;3.31;100.00
57024;BME280;42916;54.346;18.562;2023-04-01T04:55:42;98690.77;;;3.34;100.00
57024;BME280;42916;54.346;18.562;2023-04-01T04:58:36;98695.27;;;3.36;100.00
57024;BME280;42916;54.346;18.562;2023-04-01T05:01:12;98695.98;;;3.38;100.00
57024;BME280;42916;54.346;18.562;2023-04-01T05:03:39;98701.06;;;3.41;100.00
57024;BME280;42916;54.346;18.562;2023-04-01T05:06:08;98701.27;;;3.44;100.00
57024;BME280;42916;54.346;18.562;2023-04-01T05:08:36;98702.46;;;3.45;100.00
57024;BME280;42916;54.346;18.562;2023-04-01T05:11:07;98706.85;;;3.48;100.00
57024;BME280;42916;54.346;18.562;2023-04-01T05:13:36;98706.69;;;3.49;100.00
57024;BME280;42916;54.346;18.562;2023-04-01T05:16:03;98711.77;;;3.49;100.00
57024;BME280;42916;54.346;18.562;2023-04-01T05:18:30;98714.16;;;3.52;100.00
57024;BME280;42916;54.346;18.562;2023-04-01T05:20:57;98712.23;;;3.54;100.00
57024;BME280;42916;54.346;18.562;2023-04-01T05:23:23;98714.43;;;3.57;100.00
57024;BME280;42916;54.346;18.562;2023-04-01T05:25:50;98720.91;;;3.59;100.00
57024;BME280;42916;54.346;18.562;2023-04-01T05:28:20;98717.25;;;3.59;100.00
57024;BME280;42916;54.346;18.562;2023-04-01T05:30:47;98716.61;;;3.59;100.00
57024;BME280;42916;54.346;18.562;2023-04-01T05:33:35;98716.14;;;3.60;100.00
57024;BME280;42916;54.346;18.562;2023-04-01T05:36:11;98718.33;;;3.59;100.00
57024;BME280;42916;54.346;18.562;2023-04-01T05:38:39;98722.09;;;3.59;100.00
57024;BME280;42916;54.346;18.562;2023-04-01T05:41:08;98724.59;;;3.61;100.00
57024;BME280;42916;54.346;18.562;2023-04-01T05:43:38;98722.06;;;3.60;100.00
57024;BME280;42916;54.346;18.562;2023-04-01T05:46:25;98728.23;;;3.56;100.00
57024;BME280;42916;54.346;18.562;2023-04-01T05:48:58;98726.60;;;3.54;100.00
57024;BME280;42916;54.346;18.562;2023-04-01T05:51:25;98730.98;;;3.52;100.00
57024;BME280;42916;54.346;18.562;2023-04-01T05:53:52;98738.87;;;3.50;100.00
57024;BME280;42916;54.346;18.562;2023-04-01T05:56:19;98740.05;;;3.50;100.00
57024;BME280;42916;54.346;18.562;2023-04-01T05:58:50;98746.29;;;3.50;100.00
57024;BME280;42916;54.346;18.562;2023-04-01T06:01:17;98752.27;;;3.47;100.00
57024;BME280;42916;54.346;18.562;2023-04-01T06:03:45;98751.86;;;3.45;100.00
57024;BME280;42916;54.346;18.562;2023-04-01T06:06:27;98759.42;;;3.39;100.00
57024;BME280;42916;54.346;18.562;2023-04-01T06:09:12;98754.73;;;3.37;100.00
57024;BME280;42916;54.346;18.562;2023-04-01T06:18:01;98764.98;;;3.36;100.00
57024;BME280;42916;54.346;18.562;2023-04-01T06:37:15;98794.14;;;3.31;100.00
57024;BME280;42916;54.346;18.562;2023-04-01T06:39:59;98801.02;;;3.29;100.00
57024;BME280;42916;54.346;18.562;2023-04-01T06:43:01;98802.73;;;3.26;100.00
57024;BME280;42916;54.346;18.562;2023-04-01T06:46:09;98807.21;;;3.23;100.00
57024;BME280;42916;54.346;18.562;2023-04-01T06:52:22;98815.73;;;3.23;100.00
57024;BME280;42916;54.346;18.562;2023-04-01T06:55:36;98820.66;;;3.21;100.00
57024;BME280;42916;54.346;18.562;2023-04-01T06:58:29;98824.19;;;3.20;100.00
57024;BME280;42916;54.346;18.562;2023-04-01T07:01:04;98825.64;;;3.20;100.00
57024;BME280;42916;54.346;18.562;2023-04-01T07:03:36;98825.37;;;3.19;100.00
57024;BME280;42916;54.346;18.562;2023-04-01T07:06:10;98830.75;;;3.19;100.00
57024;BME280;42916;54.346;18.562;2023-04-01T07:08:49;98834.73;;;3.20;100.00
57024;BME280;42916;54.346;18.562;2023-04-01T07:11:24;98836.14;;;3.18;100.00
57024;BME280;42916;54.346;18.562;2023-04-01T07:14:24;98843.10;;;3.16;100.00
57024;BME280;42916;54.346;18.562;2023-04-01T07:17:09;98839.30;;;3.14;100.00
57024;BME280;42916;54.346;18.562;2023-04-01T07:19:49;98847.42;;;3.14;100.00
57024;BME280;42916;54.346;18.562;2023-04-01T07:22:36;98851.79;;;3.18;100.00
57024;BME280;42916;54.346;18.562;2023-04-01T07:25:30;98857.79;;;3.21;100.00
57024;BME280;42916;54.346;18.562;2023-04-01T07:28:21;98856.08;;;3.21;100.00
57024;BME280;42916;54.346;18.562;2023-04-01T07:34:08;98865.91;;;3.24;100.00
57024;BME280;42916;54.346;18.562;2023-04-01T07:37:00;98862.34;;;3.26;100.00
57024;BME280;42916;54.346;18.562;2023-04-01T07:45:05;98867.71;;;3.22;100.00
57024;BME280;42916;54.346;18.562;2023-04-01T07:48:00;98873.31;;;3.20;100.00
57024;BME280;42916;54.346;18.562;2023-04-01T07:50:39;98880.94;;;3.16;100.00
57024;BME280;42916;54.346;18.562;2023-04-01T07:53:40;98878.11;;;3.14;100.00
57024;BME280;42916;54.346;18.562;2023-04-01T07:56:25;98879.40;;;3.14;100.00
57024;BME280;42916;54.346;18.562;2023-04-01T08:05:34;98894.20;;;3.12;100.00
57024;BME280;42916;54.346;18.562;2023-04-01T08:14:23;98893.40;;;3.13;100.00
57024;BME280;42916;54.346;18.562;2023-04-01T08:20:38;98903.60;;;3.18;100.00
57024;BME280;42916;54.346;18.562;2023-04-01T08:23:22;98910.59;;;3.16;100.00
57024;BME280;42916;54.346;18.562;2023-04-01T08:25:58;98914.48;;;3.13;100.00
57024;BME280;42916;54.346;18.562;2023-04-01T08:28:36;98913.80;;;3.15;100.00
57024;BME280;42916;54.346;18.562;2023-04-01T08:31:16;98917.36;;;3.19;100.00
57024;BME280;42916;54.346;18.562;2023-04-01T08:33:46;98917.52;;;3.19;100.00
57024;BME280;42916;54.346;18.562;2023-04-01T08:36:22;98924.17;;;3.15;100.00
57024;BME280;42916;54.346;18.562;2023-04-01T08:39:13;98924.63;;;3.09;100.00
57024;BME280;42916;54.346;18.562;2023-04-01T08:56:18;98939.90;;;3.13;100.00
57024;BME280;42916;54.346;18.562;2023-04-01T09:02:16;98948.75;;;3.19;100.00
57024;BME280;42916;54.346;18.562;2023-04-01T09:16:28;98963.66;;;3.19;100.00
57024;BME280;42916;54.346;18.562;2023-04-01T09:22:33;98971.70;;;3.25;100.00
57024;BME280;42916;54.346;18.562;2023-04-01T09:31:05;98976.13;;;3.33;100.00
57024;BME280;42916;54.346;18.562;2023-04-01T09:36:46;98990.79;;;3.37;100.00
57024;BME280;42916;54.346;18.562;2023-04-01T09:44:36;98996.55;;;3.36;100.00
57024;BME280;42916;54.346;18.562;2023-04-01T09:47:43;98997.16;;;3.36;100.00
57024;BME280;42916;54.346;18.562;2023-04-01T09:59:01;99010.77;;;3.13;100.00
57024;BME280;42916;54.346;18.562;2023-04-01T10:29:02;99046.15;;;3.11;100.00
57024;BME280;42916;54.346;18.562;2023-04-01T10:35:34;99048.56;;;3.08;100.00
57024;BME280;42916;54.346;18.562;2023-04-01T10:47:55;99067.11;;;3.03;100.00
57024;BME280;42916;54.346;18.562;2023-04-01T10:56:46;99075.84;;;2.98;100.00
57024;BME280;42916;54.346;18.562;2023-04-01T11:10:08;99089.67;;;2.97;100.00
57024;BME280;42916;54.346;18.562;2023-04-01T11:21:42;99100.84;;;2.84;100.00
57024;BME280;42916;54.346;18.562;2023-04-01T11:33:20;99123.53;;;2.83;100.00
57024;BME280;42916;54.346;18.562;2023-04-01T11:35:57;99122.89;;;2.80;100.00
57024;BME280;42916;54.346;18.562;2023-04-01T11:39:05;99120.44;;;2.74;100.00
57024;BME280;42916;54.346;18.562;2023-04-01T11:50:42;99126.25;;;2.81;100.00
57024;BME280;42916;54.346;18.562;2023-04-01T12:02:06;99132.43;;;2.89;100.00
57024;BME280;42916;54.346;18.562;2023-04-01T12:04:54;99138.55;;;2.91;100.00
57024;BME280;42916;54.346;18.562;2023-04-01T12:10:21;99136.94;;;2.96;100.00
57024;BME280;42916;54.346;18.562;2023-04-01T12:13:07;99139.39;;;2.95;100.00
57024;BME280;42916;54.346;18.562;2023-04-01T12:16:00;99138.17;;;2.89;100.00
57024;BME280;42916;54.346;18.562;2023-04-01T12:19:15;99142.64;;;2.89;100.00
57024;BME280;42916;54.346;18.562;2023-04-01T12:22:03;99146.31;;;2.92;100.00
57024;BME280;42916;54.346;18.562;2023-04-01T12:24:58;99148.11;;;2.94;100.00
57024;BME280;42916;54.346;18.562;2023-04-01T12:35:52;99158.80;;;2.91;100.00
57024;BME280;42916;54.346;18.562;2023-04-01T12:38:51;99163.87;;;2.87;100.00
57024;BME280;42916;54.346;18.562;2023-04-01T12:55:43;99190.39;;;2.62;100.00
57024;BME280;42916;54.346;18.562;2023-04-01T12:58:52;99190.53;;;2.65;100.00
57024;BME280;42916;54.346;18.562;2023-04-01T13:01:35;99196.30;;;2.70;100.00
57024;BME280;42916;54.346;18.562;2023-04-01T13:15:15;99221.33;;;2.52;100.00
57024;BME280;42916;54.346;18.562;2023-04-01T13:25:44;99238.35;;;2.43;100.00
57024;BME280;42916;54.346;18.562;2023-04-01T13:28:33;99241.45;;;2.43;100.00
57024;BME280;42916;54.346;18.562;2023-04-01T13:31:13;99246.98;;;2.42;100.00
57024;BME280;42916;54.346;18.562;2023-04-01T13:33:56;99239.19;;;2.38;100.00
57024;BME280;42916;54.346;18.562;2023-04-01T13:39:15;99243.65;;;2.37;100.00
57024;BME280;42916;54.346;18.562;2023-04-01T13:45:09;99244.69;;;2.31;100.00
57024;BME280;42916;54.346;18.562;2023-04-01T13:53:50;99261.48;;;2.24;100.00
57024;BME280;42916;54.346;18.562;2023-04-01T14:02:21;99272.04;;;2.21;100.00
57024;BME280;42916;54.346;18.562;2023-04-01T14:11:38;99280.67;;;2.21;100.00
57024;BME280;42916;54.346;18.562;2023-04-01T14:13:52;99284.34;;;2.20;100.00
57024;BME280;42916;54.346;18.562;2023-04-01T14:31:16;99313.98;;;2.22;100.00
57024;BME280;42916;54.346;18.562;2023-04-01T14:34:05;99313.55;;;2.20;100.00
57024;BME280;42916;54.346;18.562;2023-04-01T14:39:54;99311.91;;;2.21;100.00
57024;BME280;42916;54.346;18.562;2023-04-01T14:47:56;99321.70;;;2.21;100.00
57024;BME280;42916;54.346;18.562;2023-04-01T14:50:28;99320.58;;;2.22;100.00
57024;BME280;42916;54.346;18.562;2023-04-01T14:55:44;99322.65;;;2.21;100.00
57024;BME280;42916;54.346;18.562;2023-04-01T14:58:17;99329.52;;;2.19;100.00
57024;BME280;42916;54.346;18.562;2023-04-01T15:08:52;99340.13;;;2.16;100.00
57024;BME280;42916;54.346;18.562;2023-04-01T15:16:55;99356.55;;;2.17;100.00
57024;BME280;42916;54.346;18.562;2023-04-01T15:28:06;99379.67;;;2.12;100.00
57024;BME280;42916;54.346;18.562;2023-04-01T15:36:45;99390.07;;;2.14;100.00
57024;BME280;42916;54.346;18.562;2023-04-01T15:44:57;99407.98;;;2.18;100.00
57024;BME280;42916;54.346;18.562;2023-04-01T15:47:39;99411.04;;;2.18;100.00
57024;BME280;42916;54.346;18.562;2023-04-01T15:50:28;99412.90;;;2.17;100.00
57024;BME280;42916;54.346;18.562;2023-04-01T15:53:05;99419.48;;;2.16;100.00
57024;BME280;42916;54.346;18.562;2023-04-01T15:55:43;99420.30;;;2.15;100.00
57024;BME280;42916;54.346;18.562;2023-04-01T16:03:57;99426.50;;;2.11;100.00
57024;BME280;42916;54.346;18.562;2023-04-01T16:12:18;99440.41;;;2.06;100.00
57024;BME280;42916;54.346;18.562;2023-04-01T16:18:01;99451.37;;;2.06;100.00
57024;BME280;42916;54.346;18.562;2023-04-01T16:23:38;99461.92;;;2.07;100.00
57024;BME280;42916;54.346;18.562;2023-04-01T16:26:34;99461.75;;;2.07;100.00
57024;BME280;42916;54.346;18.562;2023-04-01T16:38:03;99475.48;;;2.11;100.00
57024;BME280;42916;54.346;18.562;2023-04-01T16:40:58;99480.84;;;2.13;100.00
57024;BME280;42916;54.346;18.562;2023-04-01T16:43:28;99483.76;;;2.11;100.00
57024;BME280;42916;54.346;18.562;2023-04-01T16:48:59;99489.88;;;2.09;100.00
57024;BME280;42916;54.346;18.562;2023-04-01T16:59:44;99517.78;;;2.13;100.00
57024;BME280;42916;54.346;18.562;2023-04-01T17:02:15;99516.30;;;2.12;100.00
57024;BME280;42916;54.346;18.562;2023-04-01T17:16:59;99537.76;;;2.00;100.00
57024;BME280;42916;54.346;18.562;2023-04-01T17:19:49;99544.23;;;1.97;100.00
57024;BME280;42916;54.346;18.562;2023-04-01T17:22:49;99550.77;;;1.98;100.00
57024;BME280;42916;54.346;18.562;2023-04-01T17:39:22;99567.77;;;1.95;100.00
57024;BME280;42916;54.346;18.562;2023-04-01T17:42:31;99569.71;;;1.94;100.00
57024;BME280;42916;54.346;18.562;2023-04-01T17:48:03;99583.38;;;1.94;100.00
57024;BME280;42916;54.346;18.562;2023-04-01T17:53:41;99584.65;;;1.93;100.00
57024;BME280;42916;54.346;18.562;2023-04-01T17:56:38;99592.98;;;1.94;100.00
57024;BME280;42916;54.346;18.562;2023-04-01T17:59:22;99596.36;;;1.91;100.00
57024;BME280;42916;54.346;18.562;2023-04-01T18:02:01;99599.86;;;1.92;100.00
57024;BME280;42916;54.346;18.562;2023-04-01T18:07:37;99605.66;;;1.94;100.00
57024;BME280;42916;54.346;18.562;2023-04-01T18:19:09;99618.50;;;1.97;100.00
57024;BME280;42916;54.346;18.562;2023-04-01T18:21:50;99623.52;;;1.99;100.00
57024;BME280;42916;54.346;18.562;2023-04-01T18:25:16;99630.58;;;2.00;100.00
57024;BME280;42916;54.346;18.562;2023-04-01T18:27:48;99629.02;;;1.97;100.00
57024;BME280;42916;54.346;18.562;2023-04-01T18:30:28;99633.04;;;1.96;100.00
57024;BME280;42916;54.346;18.562;2023-04-01T18:33:05;99633.77;;;1.97;100.00
57024;BME280;42916;54.346;18.562;2023-04-01T18:38:44;99642.71;;;1.98;100.00
57024;BME280;42916;54.346;18.562;2023-04-01T18:43:53;99651.83;;;2.00;100.00
57024;BME280;42916;54.346;18.562;2023-04-01T18:51:57;99659.62;;;2.02;100.00
57024;BME280;42916;54.346;18.562;2023-04-01T18:54:33;99667.25;;;2.02;100.00
57024;BME280;42916;54.346;18.562;2023-04-01T18:57:13;99666.05;;;2.01;100.00
57024;BME280;42916;54.346;18.562;2023-04-01T18:59:43;99668.75;;;2.00;100.00
57024;BME280;42916;54.346;18.562;2023-04-01T19:02:29;99668.41;;;2.01;100.00
57024;BME280;42916;54.346;18.562;2023-04-01T19:05:19;99672.29;;;2.02;100.00
57024;BME280;42916;54.346;18.562;2023-04-01T19:07:54;99673.73;;;2.02;100.00
57024;BME280;42916;54.346;18.562;2023-04-01T19:10:37;99678.64;;;2.01;100.00
57024;BME280;42916;54.346;18.562;2023-04-01T19:21:37;99695.17;;;1.99;100.00
57024;BME280;42916;54.346;18.562;2023-04-01T19:38:14;99700.77;;;2.02;100.00
57024;BME280;42916;54.346;18.562;2023-04-01T19:40:52;99713.19;;;2.01;100.00
57024;BME280;42916;54.346;18.562;2023-04-01T19:46:23;99709.98;;;2.00;100.00
57024;BME280;42916;54.346;18.562;2023-04-01T19:49:02;99712.70;;;1.98;100.00
57024;BME280;42916;54.346;18.562;2023-04-01T19:51:48;99717.95;;;1.98;100.00
57024;BME280;42916;54.346;18.562;2023-04-01T19:57:22;99726.02;;;1.96;100.00
57024;BME280;42916;54.346;18.562;2023-04-01T20:03:04;99729.73;;;1.91;100.00
57024;BME280;42916;54.346;18.562;2023-04-01T20:05:45;99736.83;;;1.88;100.00
57024;BME280;42916;54.346;18.562;2023-04-01T20:08:19;99739.16;;;1.85;100.00
57024;BME280;42916;54.346;18.562;2023-04-01T20:13:35;99743.14;;;1.82;100.00
57024;BME280;42916;54.346;18.562;2023-04-01T20:16:07;99744.46;;;1.81;100.00
57024;BME280;42916;54.346;18.562;2023-04-01T20:18:41;99753.87;;;1.80;100.00
57024;BME280;42916;54.346;18.562;2023-04-01T20:23:50;99753.63;;;1.79;100.00
57024;BME280;42916;54.346;18.562;2023-04-01T20:26:27;99755.68;;;1.78;100.00
57024;BME280;42916;54.346;18.562;2023-04-01T20:31:36;99756.71;;;1.79;100.00
57024;BME280;42916;54.346;18.562;2023-04-01T20:36:49;99760.81;;;1.78;100.00
57024;BME280;42916;54.346;18.562;2023-04-01T20:53:35;99780.02;;;1.63;100.00
57024;BME280;42916;54.346;18.562;2023-04-01T20:58:58;99788.43;;;1.61;100.00
57024;BME280;42916;54.346;18.562;2023-04-01T21:04:18;99797.23;;;1.57;100.00
57024;BME280;42916;54.346;18.562;2023-04-01T21:10:02;99810.57;;;1.47;100.00
57024;BME280;42916;54.346;18.562;2023-04-01T21:15:26;99822.97;;;1.39;100.00
57024;BME280;42916;54.346;18.562;2023-04-01T21:18:39;99826.88;;;1.38;100.00
57024;BME280;42916;54.346;18.562;2023-04-01T21:21:26;99825.48;;;1.35;100.00
57024;BME280;42916;54.346;18.562;2023-04-01T21:40:16;99842.14;;;1.27;100.00
57024;BME280;42916;54.346;18.562;2023-04-01T21:45:57;99851.63;;;1.25;100.00
57024;BME280;42916;54.346;18.562;2023-04-01T21:49:19;99850.98;;;1.26;100.00
57024;BME280;42916;54.346;18.562;2023-04-01T21:52:33;99855.27;;;1.26;100.00
57024;BME280;42916;54.346;18.562;2023-04-01T22:04:18;99862.39;;;1.31;100.00
57024;BME280;42916;54.346;18.562;2023-04-01T22:07:07;99864.86;;;1.34;100.00
57024;BME280;42916;54.346;18.562;2023-04-01T22:09:49;99866.14;;;1.36;100.00
57024;BME280;42916;54.346;18.562;2023-04-01T22:15:40;99873.92;;;1.40;100.00
57024;BME280;42916;54.346;18.562;2023-04-01T22:18:25;99874.91;;;1.39;100.00
57024;BME280;42916;54.346;18.562;2023-04-01T22:21:24;99878.84;;;1.38;100.00
57024;BME280;42916;54.346;18.562;2023-04-01T22:29:25;99888.16;;;1.37;100.00
57024;BME280;42916;54.346;18.562;2023-04-01T22:35:20;99896.40;;;1.39;100.00
57024;BME280;42916;54.346;18.562;2023-04-01T22:43:11;99909.05;;;1.35;100.00
57024;BME280;42916;54.346;18.562;2023-04-01T22:48:42;99916.20;;;1.28;100.00
57024;BME280;42916;54.346;18.562;2023-04-01T23:00:22;99922.02;;;1.03;100.00